sensor_id;sensor_type;location;lat;lon;timestamp;temperature;humidity
54846;DHT22;53889;50.084;8.646;2022-10-03T00:01:56;10.60;99.90
54846;DHT22;53889;50.084;8.646;2022-10-03T00:04:36;10.60;99.90
54846;DHT22;53889;50.084;8.646;2022-10-03T00:07:16;10.60;99.90
54846;DHT22;53889;50.084;8.646;2022-10-03T00:09:56;10.50;99.90
54846;DHT22;53889;50.084;8.646;2022-10-03T00:12:49;10.30;99.90
54846;DHT22;53889;50.084;8.646;2022-10-03T00:15:23;10.20;99.90
54846;DHT22;53889;50.084;8.646;2022-10-03T00:17:57;10.20;99.90
54846;DHT22;53889;50.084;8.646;2022-10-03T00:20:40;10.30;99.90
54846;DHT22;53889;50.084;8.646;2022-10-03T00:23:16;10.30;99.90
54846;DHT22;53889;50.084;8.646;2022-10-03T00:25:50;10.30;99.90
54846;DHT22;53889;50.084;8.646;2022-10-03T00:28:38;10.30;99.90
54846;DHT22;53889;50.084;8.646;2022-10-03T00:31:12;10.20;99.90
54846;DHT22;53889;50.084;8.646;2022-10-03T00:33:52;10.10;99.90
54846;DHT22;53889;50.084;8.646;2022-10-03T00:36:30;10.10;99.90
54846;DHT22;53889;50.084;8.646;2022-10-03T00:39:17;10.10;99.90
54846;DHT22;53889;50.084;8.646;2022-10-03T00:42:01;10.00;99.90
54846;DHT22;53889;50.084;8.646;2022-10-03T00:45:00;10.10;99.90
54846;DHT22;53889;50.084;8.646;2022-10-03T00:48:08;10.10;99.90
54846;DHT22;53889;50.084;8.646;2022-10-03T00:51:18;10.00;99.90
54846;DHT22;53889;50.084;8.646;2022-10-03T00:53:54;10.10;99.90
54846;DHT22;53889;50.084;8.646;2022-10-03T00:56:36;10.00;99.90
54846;DHT22;53889;50.084;8.646;2022-10-03T00:59:16;10.00;99.90
54846;DHT22;53889;50.084;8.646;2022-10-03T01:01:48;10.00;99.90
54846;DHT22;53889;50.084;8.646;2022-10-03T01:04:27;10.10;99.90
54846;DHT22;53889;50.084;8.646;2022-10-03T01:07:04;10.10;99.90
54846;DHT22;53889;50.084;8.646;2022-10-03T01:09:45;10.10;99.90
54846;DHT22;53889;50.084;8.646;2022-10-03T01:12:25;10.00;99.90
54846;DHT22;53889;50.084;8.646;2022-10-03T01:15:19;10.10;99.90
54846;DHT22;53889;50.084;8.646;2022-10-03T01:17:57;9.90;99.90
54846;DHT22;53889;50.084;8.646;2022-10-03T01:20:32;9.90;99.90
54846;DHT22;53889;50.084;8.646;2022-10-03T01:26:06;9.80;99.90
54846;DHT22;53889;50.084;8.646;2022-10-03T01:28:42;9.80;99.90
54846;DHT22;53889;50.084;8.646;2022-10-03T01:31:33;9.70;99.90
54846;DHT22;53889;50.084;8.646;2022-10-03T01:34:09;9.70;99.90
54846;DHT22;53889;50.084;8.646;2022-10-03T01:36:41;9.60;99.90
54846;DHT22;53889;50.084;8.646;2022-10-03T01:39:14;9.80;99.90
54846;DHT22;53889;50.084;8.646;2022-10-03T01:41:51;9.60;99.90
54846;DHT22;53889;50.084;8.646;2022-10-03T01:44:30;9.60;99.90
54846;DHT22;53889;50.084;8.646;2022-10-03T01:47:12;9.60;99.90
54846;DHT22;53889;50.084;8.646;2022-10-03T01:49:45;9.50;99.90
54846;DHT22;53889;50.084;8.646;2022-10-03T01:52:20;9.50;99.90
54846;DHT22;53889;50.084;8.646;2022-10-03T01:54:56;9.50;99.90
54846;DHT22;53889;50.084;8.646;2022-10-03T01:57:31;9.50;99.90
54846;DHT22;53889;50.084;8.646;2022-10-03T02:00:07;9.50;99.90
54846;DHT22;53889;50.084;8.646;2022-10-03T02:02:44;9.40;99.90
54846;DHT22;53889;50.084;8.646;2022-10-03T02:05:18;9.40;99.90
54846;DHT22;53889;50.084;8.646;2022-10-03T02:07:51;9.40;99.90
54846;DHT22;53889;50.084;8.646;2022-10-03T02:10:37;9.50;99.90
54846;DHT22;53889;50.084;8.646;2022-10-03T02:13:11;9.50;99.90
54846;DHT22;53889;50.084;8.646;2022-10-03T02:15:49;9.50;99.90
54846;DHT22;53889;50.084;8.646;2022-10-03T02:18:25;9.40;99.90
54846;DHT22;53889;50.084;8.646;2022-10-03T02:21:03;9.40;99.90
54846;DHT22;53889;50.084;8.646;2022-10-03T02:23:39;9.40;99.90
54846;DHT22;53889;50.084;8.646;2022-10-03T02:29:16;9.40;99.90
54846;DHT22;53889;50.084;8.646;2022-10-03T02:32:09;9.40;99.90
54846;DHT22;53889;50.084;8.646;2022-10-03T02:35:08;9.40;99.90
54846;DHT22;53889;50.084;8.646;2022-10-03T02:38:05;9.40;99.90
54846;DHT22;53889;50.084;8.646;2022-10-03T02:40:53;9.30;99.90
54846;DHT22;53889;50.084;8.646;2022-10-03T02:44:00;9.30;99.90
54846;DHT22;53889;50.084;8.646;2022-10-03T02:47:05;9.30;99.90
54846;DHT22;53889;50.084;8.646;2022-10-03T02:53:21;9.30;99.90
54846;DHT22;53889;50.084;8.646;2022-10-03T02:59:14;9.10;99.90
54846;DHT22;53889;50.084;8.646;2022-10-03T03:05:20;9.30;99.90
54846;DHT22;53889;50.084;8.646;2022-10-03T03:08:07;9.30;99.90
54846;DHT22;53889;50.084;8.646;2022-10-03T03:14:02;9.30;99.90
54846;DHT22;53889;50.084;8.646;2022-10-03T03:16:44;9.40;99.90
54846;DHT22;53889;50.084;8.646;2022-10-03T03:19:29;9.30;99.90
54846;DHT22;53889;50.084;8.646;2022-10-03T03:22:08;9.40;99.90
54846;DHT22;53889;50.084;8.646;2022-10-03T03:27:43;9.40;99.90
54846;DHT22;53889;50.084;8.646;2022-10-03T03:30:17;9.40;99.90
54846;DHT22;53889;50.084;8.646;2022-10-03T03:32:56;9.30;99.90
54846;DHT22;53889;50.084;8.646;2022-10-03T03:35:35;9.20;99.90
54846;DHT22;53889;50.084;8.646;2022-10-03T03:38:16;9.20;99.90
54846;DHT22;53889;50.084;8.646;2022-10-03T03:41:00;9.20;99.90
54846;DHT22;53889;50.084;8.646;2022-10-03T03:43:50;9.10;99.90
54846;DHT22;53889;50.084;8.646;2022-10-03T03:46:28;9.00;99.90
54846;DHT22;53889;50.084;8.646;2022-10-03T03:49:03;9.10;99.90
54846;DHT22;53889;50.084;8.646;2022-10-03T03:51:41;9.20;99.90
54846;DHT22;53889;50.084;8.646;2022-10-03T03:54:42;9.30;99.90
54846;DHT22;53889;50.084;8.646;2022-10-03T03:57:33;9.30;99.90
54846;DHT22;53889;50.084;8.646;2022-10-03T04:00:08;9.30;99.90
54846;DHT22;53889;50.084;8.646;2022-10-03T04:03:05;9.30;99.90
54846;DHT22;53889;50.084;8.646;2022-10-03T04:05:47;9.40;99.90
54846;DHT22;53889;50.084;8.646;2022-10-03T04:08:31;9.30;99.90
54846;DHT22;53889;50.084;8.646;2022-10-03T04:11:11;9.10;99.90
54846;DHT22;53889;50.084;8.646;2022-10-03T04:14:10;9.10;99.90
54846;DHT22;53889;50.084;8.646;2022-10-03T04:16:53;9.10;99.90
54846;DHT22;53889;50.084;8.646;2022-10-03T04:19:49;9.10;99.90
54846;DHT22;53889;50.084;8.646;2022-10-03T04:22:30;9.00;99.90
54846;DHT22;53889;50.084;8.646;2022-10-03T04:25:23;8.80;99.90
54846;DHT22;53889;50.084;8.646;2022-10-03T04:28:14;8.70;99.90
54846;DHT22;53889;50.084;8.646;2022-10-03T04:30:56;8.60;99.90
54846;DHT22;53889;50.084;8.646;2022-10-03T04:33:36;8.70;99.90
54846;DHT22;53889;50.084;8.646;2022-10-03T04:36:29;8.70;99.90
54846;DHT22;53889;50.084;8.646;2022-10-03T04:39:05;8.70;99.90
54846;DHT22;53889;50.084;8.646;2022-10-03T04:41:40;8.60;99.90
54846;DHT22;53889;50.084;8.646;2022-10-03T04:44:17;8.70;99.90
54846;DHT22;53889;50.084;8.646;2022-10-03T04:46:51;8.80;99.90
54846;DHT22;53889;50.084;8.646;2022-10-03T04:49:26;8.90;99.90
54846;DHT22;53889;50.084;8.646;2022-10-03T04:51:59;8.80;99.90
54846;DHT22;53889;50.084;8.646;2022-10-03T04:54:38;8.90;99.90
54846;DHT22;53889;50.084;8.646;2022-10-03T04:57:18;8.80;99.90
54846;DHT22;53889;50.084;8.646;2022-10-03T04:59:51;8.80;99.90
54846;DHT22;53889;50.084;8.646;2022-10-03T05:02:32;8.80;99.90
54846;DHT22;53889;50.084;8.646;2022-10-03T05:05:14;8.90;99.90
54846;DHT22;53889;50.084;8.646;2022-10-03T05:07:47;9.00;99.90
54846;DHT22;53889;50.084;8.646;2022-10-03T05:10:25;9.00;99.90
54846;DHT22;53889;50.084;8.646;2022-10-03T05:12:59;9.00;99.90
54846;DHT22;53889;50.084;8.646;2022-10-03T05:15:32;9.00;99.90
54846;DHT22;53889;50.084;8.646;2022-10-03T05:18:13;9.10;99.90
54846;DHT22;53889;50.084;8.646;2022-10-03T05:20:51;9.00;99.90
54846;DHT22;53889;50.084;8.646;2022-10-03T05:23:28;9.10;99.90
54846;DHT22;53889;50.084;8.646;2022-10-03T05:26:06;9.00;99.90
54846;DHT22;53889;50.084;8.646;2022-10-03T05:28:43;9.10;99.90
54846;DHT22;53889;50.084;8.646;2022-10-03T05:31:30;9.30;99.90
54846;DHT22;53889;50.084;8.646;2022-10-03T05:34:05;9.40;99.90
54846;DHT22;53889;50.084;8.646;2022-10-03T05:36:56;9.50;99.90
54846;DHT22;53889;50.084;8.646;2022-10-03T05:39:37;9.60;99.90
54846;DHT22;53889;50.084;8.646;2022-10-03T05:42:31;9.60;99.90
54846;DHT22;53889;50.084;8.646;2022-10-03T05:45:03;9.50;99.90
54846;DHT22;53889;50.084;8.646;2022-10-03T05:47:41;9.50;99.90
54846;DHT22;53889;50.084;8.646;2022-10-03T05:53:25;9.60;99.90
54846;DHT22;53889;50.084;8.646;2022-10-03T05:56:04;9.60;99.90
54846;DHT22;53889;50.084;8.646;2022-10-03T05:58:42;9.60;99.90
54846;DHT22;53889;50.084;8.646;2022-10-03T06:01:38;9.70;99.90
54846;DHT22;53889;50.084;8.646;2022-10-03T06:04:40;9.70;99.90
54846;DHT22;53889;50.084;8.646;2022-10-03T06:07:19;9.60;99.90
54846;DHT22;53889;50.084;8.646;2022-10-03T06:10:03;9.70;99.90
54846;DHT22;53889;50.084;8.646;2022-10-03T06:12:37;9.80;99.90
54846;DHT22;53889;50.084;8.646;2022-10-03T06:15:30;9.90;99.90
54846;DHT22;53889;50.084;8.646;2022-10-03T06:18:08;9.90;99.90
54846;DHT22;53889;50.084;8.646;2022-10-03T06:21:08;10.10;99.90
54846;DHT22;53889;50.084;8.646;2022-10-03T06:23:59;10.20;99.90
54846;DHT22;53889;50.084;8.646;2022-10-03T06:26:43;10.20;99.90
54846;DHT22;53889;50.084;8.646;2022-10-03T06:29:39;10.40;99.90
54846;DHT22;53889;50.084;8.646;2022-10-03T06:32:32;10.50;99.90
54846;DHT22;53889;50.084;8.646;2022-10-03T06:35:46;10.60;99.90
54846;DHT22;53889;50.084;8.646;2022-10-03T06:38:50;10.70;99.90
54846;DHT22;53889;50.084;8.646;2022-10-03T06:42:01;10.80;99.90
54846;DHT22;53889;50.084;8.646;2022-10-03T06:44:48;10.80;99.90
54846;DHT22;53889;50.084;8.646;2022-10-03T06:47:32;10.80;99.90
54846;DHT22;53889;50.084;8.646;2022-10-03T06:50:20;10.90;99.90
54846;DHT22;53889;50.084;8.646;2022-10-03T06:53:07;11.00;99.90
54846;DHT22;53889;50.084;8.646;2022-10-03T06:58:55;11.20;99.90
54846;DHT22;53889;50.084;8.646;2022-10-03T07:05:00;11.30;99.90
54846;DHT22;53889;50.084;8.646;2022-10-03T07:11:01;11.60;99.90
54846;DHT22;53889;50.084;8.646;2022-10-03T07:16:57;11.80;99.90
54846;DHT22;53889;50.084;8.646;2022-10-03T07:20:06;11.80;99.90
54846;DHT22;53889;50.084;8.646;2022-10-03T07:29:13;12.10;99.90
54846;DHT22;53889;50.084;8.646;2022-10-03T07:31:54;12.10;99.90
54846;DHT22;53889;50.084;8.646;2022-10-03T07:38:03;12.40;99.90
54846;DHT22;53889;50.084;8.646;2022-10-03T07:41:13;12.70;99.90
54846;DHT22;53889;50.084;8.646;2022-10-03T07:44:03;12.90;99.90
54846;DHT22;53889;50.084;8.646;2022-10-03T07:47:19;13.10;99.90
54846;DHT22;53889;50.084;8.646;2022-10-03T07:50:22;13.60;99.90
54846;DHT22;53889;50.084;8.646;2022-10-03T07:53:12;13.80;99.90
54846;DHT22;53889;50.084;8.646;2022-10-03T07:55:56;15.70;99.90
54846;DHT22;53889;50.084;8.646;2022-10-03T07:58:37;17.50;99.90
54846;DHT22;53889;50.084;8.646;2022-10-03T08:01:22;18.20;99.90
54846;DHT22;53889;50.084;8.646;2022-10-03T08:04:25;18.20;99.90
54846;DHT22;53889;50.084;8.646;2022-10-03T08:07:07;18.20;99.90
54846;DHT22;53889;50.084;8.646;2022-10-03T08:09:50;19.10;99.90
54846;DHT22;53889;50.084;8.646;2022-10-03T08:12:48;19.70;99.90
54846;DHT22;53889;50.084;8.646;2022-10-03T08:15:23;20.60;99.50
54846;DHT22;53889;50.084;8.646;2022-10-03T08:20:47;21.60;96.90
54846;DHT22;53889;50.084;8.646;2022-10-03T08:26:40;20.60;97.10
54846;DHT22;53889;50.084;8.646;2022-10-03T08:29:25;19.90;98.10
54846;DHT22;53889;50.084;8.646;2022-10-03T08:32:32;20.10;97.90
54846;DHT22;53889;50.084;8.646;2022-10-03T08:35:29;20.40;96.90
54846;DHT22;53889;50.084;8.646;2022-10-03T08:38:31;20.60;97.10
54846;DHT22;53889;50.084;8.646;2022-10-03T08:44:44;20.70;96.10
54846;DHT22;53889;50.084;8.646;2022-10-03T08:50:48;21.00;95.70
54846;DHT22;53889;50.084;8.646;2022-10-03T08:53:47;21.60;94.90
54846;DHT22;53889;50.084;8.646;2022-10-03T08:56:20;22.00;93.60
54846;DHT22;53889;50.084;8.646;2022-10-03T08:59:13;22.20;93.30
54846;DHT22;53889;50.084;8.646;2022-10-03T09:02:36;22.50;92.40
54846;DHT22;53889;50.084;8.646;2022-10-03T09:05:31;22.30;92.70
54846;DHT22;53889;50.084;8.646;2022-10-03T09:11:36;23.00;90.60
54846;DHT22;53889;50.084;8.646;2022-10-03T09:23:51;22.30;90.60
54846;DHT22;53889;50.084;8.646;2022-10-03T09:26:45;22.10;89.60
54846;DHT22;53889;50.084;8.646;2022-10-03T09:29:32;23.20;87.80
54846;DHT22;53889;50.084;8.646;2022-10-03T09:32:34;24.50;84.70
54846;DHT22;53889;50.084;8.646;2022-10-03T09:35:34;25.00;82.70
54846;DHT22;53889;50.084;8.646;2022-10-03T09:41:25;24.30;77.40
54846;DHT22;53889;50.084;8.646;2022-10-03T09:44:02;22.00;80.40
54846;DHT22;53889;50.084;8.646;2022-10-03T09:46:55;22.00;84.20
54846;DHT22;53889;50.084;8.646;2022-10-03T09:50:14;22.40;82.70
54846;DHT22;53889;50.084;8.646;2022-10-03T09:52:55;22.40;81.70
54846;DHT22;53889;50.084;8.646;2022-10-03T09:55:39;23.50;80.00
54846;DHT22;53889;50.084;8.646;2022-10-03T09:58:44;24.70;77.10
54846;DHT22;53889;50.084;8.646;2022-10-03T10:01:23;25.50;68.90
54846;DHT22;53889;50.084;8.646;2022-10-03T10:11:08;25.00;71.20
54846;DHT22;53889;50.084;8.646;2022-10-03T10:14:21;25.10;69.20
54846;DHT22;53889;50.084;8.646;2022-10-03T10:17:24;23.80;69.50
54846;DHT22;53889;50.084;8.646;2022-10-03T10:20:05;22.00;74.20
54846;DHT22;53889;50.084;8.646;2022-10-03T10:25:46;19.90;80.60
54846;DHT22;53889;50.084;8.646;2022-10-03T10:28:41;20.30;81.90
54846;DHT22;53889;50.084;8.646;2022-10-03T10:31:49;20.60;78.90
54846;DHT22;53889;50.084;8.646;2022-10-03T10:34:58;20.70;78.80
54846;DHT22;53889;50.084;8.646;2022-10-03T10:37:54;21.20;79.30
54846;DHT22;53889;50.084;8.646;2022-10-03T10:40:54;21.00;79.50
54846;DHT22;53889;50.084;8.646;2022-10-03T10:44:05;20.70;80.30
54846;DHT22;53889;50.084;8.646;2022-10-03T10:56:56;19.60;85.70
54846;DHT22;53889;50.084;8.646;2022-10-03T11:09:16;25.40;67.70
54846;DHT22;53889;50.084;8.646;2022-10-03T11:15:14;24.90;67.40
54846;DHT22;53889;50.084;8.646;2022-10-03T11:18:14;23.80;69.50
54846;DHT22;53889;50.084;8.646;2022-10-03T11:21:18;21.80;72.10
54846;DHT22;53889;50.084;8.646;2022-10-03T11:24:08;21.20;75.80
54846;DHT22;53889;50.084;8.646;2022-10-03T11:27:07;20.50;77.40
54846;DHT22;53889;50.084;8.646;2022-10-03T11:35:58;20.30;78.20
54846;DHT22;53889;50.084;8.646;2022-10-03T11:38:31;19.90;77.50
54846;DHT22;53889;50.084;8.646;2022-10-03T11:41:07;19.60;79.60
54846;DHT22;53889;50.084;8.646;2022-10-03T11:44:04;19.70;79.90
54846;DHT22;53889;50.084;8.646;2022-10-03T11:46:51;19.50;79.70
54846;DHT22;53889;50.084;8.646;2022-10-03T11:49:41;19.60;80.10
54846;DHT22;53889;50.084;8.646;2022-10-03T11:52:24;19.90;80.00
54846;DHT22;53889;50.084;8.646;2022-10-03T11:55:02;19.90;79.40
54846;DHT22;53889;50.084;8.646;2022-10-03T11:57:34;19.80;79.00
54846;DHT22;53889;50.084;8.646;2022-10-03T12:00:04;20.00;78.80
54846;DHT22;53889;50.084;8.646;2022-10-03T12:03:17;20.00;78.90
54846;DHT22;53889;50.084;8.646;2022-10-03T12:05:50;19.80;80.50
54846;DHT22;53889;50.084;8.646;2022-10-03T12:08:41;19.90;79.80
54846;DHT22;53889;50.084;8.646;2022-10-03T12:11:24;19.80;79.10
54846;DHT22;53889;50.084;8.646;2022-10-03T12:14:12;19.50;79.20
54846;DHT22;53889;50.084;8.646;2022-10-03T12:17:02;19.20;80.60
54846;DHT22;53889;50.084;8.646;2022-10-03T12:19:37;19.20;81.10
54846;DHT22;53889;50.084;8.646;2022-10-03T12:22:15;19.50;80.80
54846;DHT22;53889;50.084;8.646;2022-10-03T12:24:45;19.50;82.00
54846;DHT22;53889;50.084;8.646;2022-10-03T12:27:20;19.50;81.50
54846;DHT22;53889;50.084;8.646;2022-10-03T12:29:54;19.60;82.10
54846;DHT22;53889;50.084;8.646;2022-10-03T12:32:30;19.60;81.90
54846;DHT22;53889;50.084;8.646;2022-10-03T12:35:08;19.60;81.50
54846;DHT22;53889;50.084;8.646;2022-10-03T12:37:43;19.40;82.20
54846;DHT22;53889;50.084;8.646;2022-10-03T12:40:16;19.00;82.70
54846;DHT22;53889;50.084;8.646;2022-10-03T12:42:54;18.80;83.90
54846;DHT22;53889;50.084;8.646;2022-10-03T12:45:30;19.60;84.90
54846;DHT22;53889;50.084;8.646;2022-10-03T12:48:14;19.10;84.10
54846;DHT22;53889;50.084;8.646;2022-10-03T12:50:48;19.20;83.40
54846;DHT22;53889;50.084;8.646;2022-10-03T12:53:34;19.50;82.10
54846;DHT22;53889;50.084;8.646;2022-10-03T12:56:06;19.40;82.40
54846;DHT22;53889;50.084;8.646;2022-10-03T12:58:44;19.50;83.10
54846;DHT22;53889;50.084;8.646;2022-10-03T13:01:20;20.10;80.90
54846;DHT22;53889;50.084;8.646;2022-10-03T13:03:53;20.10;80.60
54846;DHT22;53889;50.084;8.646;2022-10-03T13:06:40;20.40;80.20
54846;DHT22;53889;50.084;8.646;2022-10-03T13:09:28;20.20;80.10
54846;DHT22;53889;50.084;8.646;2022-10-03T13:12:04;19.80;80.60
54846;DHT22;53889;50.084;8.646;2022-10-03T13:17:30;19.40;82.10
54846;DHT22;53889;50.084;8.646;2022-10-03T13:20:09;19.20;82.90
54846;DHT22;53889;50.084;8.646;2022-10-03T13:22:44;18.80;83.50
54846;DHT22;53889;50.084;8.646;2022-10-03T13:25:17;18.70;84.60
54846;DHT22;53889;50.084;8.646;2022-10-03T13:27:49;18.50;84.40
54846;DHT22;53889;50.084;8.646;2022-10-03T13:30:19;18.40;85.70
54846;DHT22;53889;50.084;8.646;2022-10-03T13:32:51;18.50;86.80
54846;DHT22;53889;50.084;8.646;2022-10-03T13:35:26;18.50;88.40
54846;DHT22;53889;50.084;8.646;2022-10-03T13:38:40;18.50;89.00
54846;DHT22;53889;50.084;8.646;2022-10-03T13:41:29;18.10;89.80
54846;DHT22;53889;50.084;8.646;2022-10-03T13:44:00;18.10;90.20
54846;DHT22;53889;50.084;8.646;2022-10-03T13:46:33;18.00;90.60
54846;DHT22;53889;50.084;8.646;2022-10-03T13:49:10;18.00;90.60
54846;DHT22;53889;50.084;8.646;2022-10-03T13:51:49;18.00;90.90
54846;DHT22;53889;50.084;8.646;2022-10-03T13:54:27;17.90;90.70
54846;DHT22;53889;50.084;8.646;2022-10-03T13:57:13;17.80;91.20
54846;DHT22;53889;50.084;8.646;2022-10-03T13:59:52;17.80;91.20
54846;DHT22;53889;50.084;8.646;2022-10-03T14:02:49;18.00;91.10
54846;DHT22;53889;50.084;8.646;2022-10-03T14:05:36;18.20;91.10
54846;DHT22;53889;50.084;8.646;2022-10-03T14:08:11;18.20;91.50
54846;DHT22;53889;50.084;8.646;2022-10-03T14:11:00;18.30;91.10
54846;DHT22;53889;50.084;8.646;2022-10-03T14:13:34;18.10;91.20
54846;DHT22;53889;50.084;8.646;2022-10-03T14:16:08;17.90;91.70
54846;DHT22;53889;50.084;8.646;2022-10-03T14:18:44;17.70;92.20
54846;DHT22;53889;50.084;8.646;2022-10-03T14:21:41;17.80;92.20
54846;DHT22;53889;50.084;8.646;2022-10-03T14:24:25;17.80;92.50
54846;DHT22;53889;50.084;8.646;2022-10-03T14:26:58;17.80;92.30
54846;DHT22;53889;50.084;8.646;2022-10-03T14:29:36;18.60;92.90
54846;DHT22;53889;50.084;8.646;2022-10-03T14:32:11;17.50;92.70
54846;DHT22;53889;50.084;8.646;2022-10-03T14:34:48;17.50;92.90
54846;DHT22;53889;50.084;8.646;2022-10-03T14:37:23;17.60;93.00
54846;DHT22;53889;50.084;8.646;2022-10-03T14:40:07;17.50;93.50
54846;DHT22;53889;50.084;8.646;2022-10-03T14:42:43;17.70;92.70
54846;DHT22;53889;50.084;8.646;2022-10-03T14:45:16;18.10;92.90
54846;DHT22;53889;50.084;8.646;2022-10-03T14:47:47;17.70;93.00
54846;DHT22;53889;50.084;8.646;2022-10-03T14:50:17;17.70;92.80
54846;DHT22;53889;50.084;8.646;2022-10-03T14:52:50;17.60;92.80
54846;DHT22;53889;50.084;8.646;2022-10-03T14:55:23;17.70;93.10
54846;DHT22;53889;50.084;8.646;2022-10-03T14:57:52;17.60;93.20
54846;DHT22;53889;50.084;8.646;2022-10-03T15:00:26;17.70;93.30
54846;DHT22;53889;50.084;8.646;2022-10-03T15:03:12;17.60;92.70
54846;DHT22;53889;50.084;8.646;2022-10-03T15:05:56;17.50;93.00
54846;DHT22;53889;50.084;8.646;2022-10-03T15:08:25;17.40;93.50
54846;DHT22;53889;50.084;8.646;2022-10-03T15:10:58;17.20;93.30
54846;DHT22;53889;50.084;8.646;2022-10-03T15:13:26;17.20;93.90
54846;DHT22;53889;50.084;8.646;2022-10-03T15:15:55;17.20;93.50
54846;DHT22;53889;50.084;8.646;2022-10-03T15:18:23;17.20;93.20
54846;DHT22;53889;50.084;8.646;2022-10-03T15:20:52;17.10;93.20
54846;DHT22;53889;50.084;8.646;2022-10-03T15:23:22;17.00;93.30
54846;DHT22;53889;50.084;8.646;2022-10-03T15:25:52;16.90;93.40
54846;DHT22;53889;50.084;8.646;2022-10-03T15:28:23;16.90;93.40
54846;DHT22;53889;50.084;8.646;2022-10-03T15:30:53;16.90;93.60
54846;DHT22;53889;50.084;8.646;2022-10-03T15:33:28;17.00;93.20
54846;DHT22;53889;50.084;8.646;2022-10-03T15:36:00;17.00;93.20
54846;DHT22;53889;50.084;8.646;2022-10-03T15:38:33;16.90;93.30
54846;DHT22;53889;50.084;8.646;2022-10-03T15:41:07;17.00;93.10
54846;DHT22;53889;50.084;8.646;2022-10-03T15:43:42;17.10;93.30
54846;DHT22;53889;50.084;8.646;2022-10-03T15:46:25;17.10;92.90
54846;DHT22;53889;50.084;8.646;2022-10-03T15:48:53;17.10;92.60
54846;DHT22;53889;50.084;8.646;2022-10-03T15:51:24;17.00;92.80
54846;DHT22;53889;50.084;8.646;2022-10-03T15:53:54;17.10;93.10
54846;DHT22;53889;50.084;8.646;2022-10-03T15:56:25;16.60;93.00
54846;DHT22;53889;50.084;8.646;2022-10-03T15:59:00;16.90;93.30
54846;DHT22;53889;50.084;8.646;2022-10-03T16:01:32;14.40;93.10
54846;DHT22;53889;50.084;8.646;2022-10-03T16:04:00;16.60;93.80
54846;DHT22;53889;50.084;8.646;2022-10-03T16:06:32;16.60;93.60
54846;DHT22;53889;50.084;8.646;2022-10-03T16:09:12;16.60;93.60
54846;DHT22;53889;50.084;8.646;2022-10-03T16:11:47;16.60;93.90
54846;DHT22;53889;50.084;8.646;2022-10-03T16:14:22;16.60;94.10
54846;DHT22;53889;50.084;8.646;2022-10-03T16:16:52;16.50;94.30
54846;DHT22;53889;50.084;8.646;2022-10-03T16:19:27;16.50;94.50
54846;DHT22;53889;50.084;8.646;2022-10-03T16:21:56;16.60;94.40
54846;DHT22;53889;50.084;8.646;2022-10-03T16:24:31;16.50;94.60
54846;DHT22;53889;50.084;8.646;2022-10-03T16:27:06;16.40;94.50
54846;DHT22;53889;50.084;8.646;2022-10-03T16:29:36;16.40;94.90
54846;DHT22;53889;50.084;8.646;2022-10-03T16:32:06;16.50;95.10
54846;DHT22;53889;50.084;8.646;2022-10-03T16:34:35;16.50;95.10
54846;DHT22;53889;50.084;8.646;2022-10-03T16:37:15;16.50;95.60
54846;DHT22;53889;50.084;8.646;2022-10-03T16:39:43;16.50;95.60
54846;DHT22;53889;50.084;8.646;2022-10-03T16:42:17;16.40;95.80
54846;DHT22;53889;50.084;8.646;2022-10-03T16:44:50;16.40;96.20
54846;DHT22;53889;50.084;8.646;2022-10-03T16:47:28;16.30;96.30
54846;DHT22;53889;50.084;8.646;2022-10-03T16:49:58;16.30;96.40
54846;DHT22;53889;50.084;8.646;2022-10-03T16:52:46;16.30;96.70
54846;DHT22;53889;50.084;8.646;2022-10-03T16:55:15;16.30;96.90
54846;DHT22;53889;50.084;8.646;2022-10-03T16:57:46;16.20;97.10
54846;DHT22;53889;50.084;8.646;2022-10-03T17:00:20;16.20;97.40
54846;DHT22;53889;50.084;8.646;2022-10-03T17:02:47;16.20;97.60
54846;DHT22;53889;50.084;8.646;2022-10-03T17:05:15;16.20;97.70
54846;DHT22;53889;50.084;8.646;2022-10-03T17:07:44;16.20;97.90
54846;DHT22;53889;50.084;8.646;2022-10-03T17:10:28;16.00;98.10
54846;DHT22;53889;50.084;8.646;2022-10-03T17:12:58;16.00;98.10
54846;DHT22;53889;50.084;8.646;2022-10-03T17:15:30;15.90;98.30
54846;DHT22;53889;50.084;8.646;2022-10-03T17:18:07;15.90;98.60
54846;DHT22;53889;50.084;8.646;2022-10-03T17:20:40;15.80;99.10
54846;DHT22;53889;50.084;8.646;2022-10-03T17:23:13;15.80;99.30
54846;DHT22;53889;50.084;8.646;2022-10-03T17:25:48;15.70;99.50
54846;DHT22;53889;50.084;8.646;2022-10-03T17:28:26;15.60;99.90
54846;DHT22;53889;50.084;8.646;2022-10-03T17:30:59;15.40;99.90
54846;DHT22;53889;50.084;8.646;2022-10-03T17:33:34;15.40;99.90
54846;DHT22;53889;50.084;8.646;2022-10-03T17:36:26;15.30;99.90
54846;DHT22;53889;50.084;8.646;2022-10-03T17:39:01;15.30;99.90
54846;DHT22;53889;50.084;8.646;2022-10-03T17:41:32;15.20;99.90
54846;DHT22;53889;50.084;8.646;2022-10-03T17:44:14;15.20;99.90
54846;DHT22;53889;50.084;8.646;2022-10-03T17:46:56;15.00;99.90
54846;DHT22;53889;50.084;8.646;2022-10-03T17:49:35;14.80;99.90
54846;DHT22;53889;50.084;8.646;2022-10-03T17:52:12;14.60;99.90
54846;DHT22;53889;50.084;8.646;2022-10-03T17:54:43;14.40;99.90
54846;DHT22;53889;50.084;8.646;2022-10-03T17:57:16;14.40;99.90
54846;DHT22;53889;50.084;8.646;2022-10-03T17:59:52;14.50;99.90
54846;DHT22;53889;50.084;8.646;2022-10-03T18:02:24;14.40;99.90
54846;DHT22;53889;50.084;8.646;2022-10-03T18:04:59;14.40;99.90
54846;DHT22;53889;50.084;8.646;2022-10-03T18:07:29;14.30;99.90
54846;DHT22;53889;50.084;8.646;2022-10-03T18:09:56;14.30;99.90
54846;DHT22;53889;50.084;8.646;2022-10-03T18:12:30;14.20;99.90
54846;DHT22;53889;50.084;8.646;2022-10-03T18:15:19;14.10;99.90
54846;DHT22;53889;50.084;8.646;2022-10-03T18:17:59;14.20;99.90
54846;DHT22;53889;50.084;8.646;2022-10-03T18:20:40;14.00;99.90
54846;DHT22;53889;50.084;8.646;2022-10-03T18:23:17;13.90;99.90
54846;DHT22;53889;50.084;8.646;2022-10-03T18:25:51;13.90;99.90
54846;DHT22;53889;50.084;8.646;2022-10-03T18:28:32;14.00;99.90
54846;DHT22;53889;50.084;8.646;2022-10-03T18:31:03;13.90;99.90
54846;DHT22;53889;50.084;8.646;2022-10-03T18:33:39;13.90;99.90
54846;DHT22;53889;50.084;8.646;2022-10-03T18:36:16;13.80;99.90
54846;DHT22;53889;50.084;8.646;2022-10-03T18:38:44;13.70;99.90
54846;DHT22;53889;50.084;8.646;2022-10-03T18:41:13;13.70;99.90
54846;DHT22;53889;50.084;8.646;2022-10-03T18:43:44;13.70;99.90
54846;DHT22;53889;50.084;8.646;2022-10-03T18:46:17;13.60;99.90
54846;DHT22;53889;50.084;8.646;2022-10-03T18:48:56;13.50;99.90
54846;DHT22;53889;50.084;8.646;2022-10-03T18:51:31;13.30;99.90
54846;DHT22;53889;50.084;8.646;2022-10-03T18:54:02;13.30;99.90
54846;DHT22;53889;50.084;8.646;2022-10-03T18:56:30;13.10;99.90
54846;DHT22;53889;50.084;8.646;2022-10-03T18:59:07;13.00;99.90
54846;DHT22;53889;50.084;8.646;2022-10-03T19:01:47;12.90;99.90
54846;DHT22;53889;50.084;8.646;2022-10-03T19:04:26;12.90;99.90